Pagina principale
METAR-TAF:

METAR-TAF

Aeroporti :

Aeroporto di Riunione-Roland Garros

Saint-Denis, Riunione

latitudine: 20-53S, longitudine: 055-31E, altezza: 21 m

Osservazione

Il bollettino è stato emesso 29 minuti fa, alle 19:00 UTC
Vento 13 kt da sud-est
Temperature 21°C
Umidità 69%
Pressione 1026 hPa
Visibilità 10 km o più
nessuna nube inferiore a 1500 m e nessun cumulonembo

METAR: FMEE 141900Z AUTO 14013KT CAVOK 21/15 Q1026 NOSIG

Ora: 23:29 (19:29 UTC)

Previsione

Il bollettino è stato emesso 2 ore e 29 minuti fa, alle 17:00 UTC
Previsione valida dal 14 alle 18 UTC al 15 alle 24 UTC
Vento 15 kt da est/sud-est
Visibilità 10 km o più
Nubi sparse ad un'altezza di 3000 ft
Evoluzione graduale
dal 15 alle 04 UTC al 15 alle 06 UTC
Vento 20 kt da est con raffiche fino a 30 kt

TAF: FMEE 141700Z 1418/1524 12015KT 9999 SCT030 BECMG 1504/1506 10020G30KT

Osservazioni e previsioni meteorologiche di più di 4000 aeroporti (messaggi METAR e TAF).

Le stazioni disponibili sono rappresentate dai dischi gialli e rossi sulla carta.

Puntare il mouse per vedere il nome della stazione.

Clicca sopra per visualizzare le osservazioni e previsioni meteorologiche.

Per cambiare la mappa : fare clic sui pulsanti verdi con una croce nera per ingrandire, il pulsante verde con un trattino per diminuire, o sulla freccia verde per le mappe adiacenti.


METAR-TAF: